createdAt,value
2018-12-29T00:00:34.680Z,13.93
2018-12-29T00:03:03.131Z,14.50
2018-12-29T00:05:31.556Z,12.63
2018-12-29T00:07:59.987Z,12.83
2018-12-29T00:10:28.440Z,14.80
2018-12-29T00:12:56.883Z,15.07
2018-12-29T00:15:25.320Z,13.23
2018-12-29T00:17:53.795Z,12.87
2018-12-29T00:20:22.337Z,14.37
2018-12-29T00:22:50.760Z,14.07
2018-12-29T00:25:19.208Z,13.77
2018-12-29T00:27:47.653Z,14.33
2018-12-29T00:30:16.088Z,13.63
2018-12-29T00:32:44.546Z,13.43
2018-12-29T00:35:12.976Z,14.67
2018-12-29T00:37:41.394Z,13.87
2018-12-29T00:40:09.843Z,12.97
2018-12-29T00:42:38.335Z,13.50
2018-12-29T00:45:06.844Z,13.90
2018-12-29T00:47:35.376Z,12.67
2018-12-29T00:50:04.742Z,12.40
2018-12-29T00:52:33.172Z,12.67
2018-12-29T00:55:01.628Z,12.73
2018-12-29T00:57:30.061Z,14.47
2018-12-29T00:59:58.492Z,13.00
2018-12-29T01:02:26.944Z,13.23
2018-12-29T01:04:55.449Z,14.10
2018-12-29T01:07:23.889Z,14.83
2018-12-29T01:09:52.363Z,14.17
2018-12-29T01:12:20.798Z,15.20
2018-12-29T01:14:49.352Z,13.77
2018-12-29T01:17:17.805Z,13.43
2018-12-29T01:19:46.238Z,15.37
2018-12-29T01:22:14.672Z,13.63
2018-12-29T01:24:44.046Z,14.77
2018-12-29T01:27:12.480Z,15.63
2018-12-29T01:29:40.916Z,15.77
2018-12-29T01:32:09.389Z,14.80
2018-12-29T01:34:37.816Z,14.60
2018-12-29T01:37:06.249Z,15.33
2018-12-29T01:39:34.697Z,14.93
2018-12-29T01:42:03.124Z,16.57
2018-12-29T01:44:31.553Z,16.07
2018-12-29T01:47:00.004Z,15.23
2018-12-29T01:49:28.436Z,15.40
2018-12-29T01:51:56.859Z,15.80
2018-12-29T01:54:25.384Z,16.60
2018-12-29T01:56:53.817Z,14.47
2018-12-29T01:59:22.239Z,14.03
2018-12-29T02:01:50.694Z,15.07
2018-12-29T02:04:19.393Z,15.10
2018-12-29T02:06:47.826Z,16.30
2018-12-29T02:09:16.355Z,16.07
2018-12-29T02:11:44.806Z,15.73
2018-12-29T02:14:13.233Z,16.37
2018-12-29T02:16:41.718Z,15.47
2018-12-29T02:19:10.144Z,15.77
2018-12-29T02:21:38.640Z,17.73
2018-12-29T02:24:07.088Z,14.20
2018-12-29T02:26:35.516Z,14.10
2018-12-29T02:29:04.008Z,18.57
2018-12-29T02:31:32.464Z,14.83
2018-12-29T02:34:00.900Z,15.80
2018-12-29T02:36:29.331Z,16.97
2018-12-29T02:38:57.789Z,16.80
2018-12-29T02:41:26.223Z,14.57
2018-12-29T02:43:54.656Z,16.20
2018-12-29T02:46:23.110Z,16.23
2018-12-29T02:48:51.534Z,14.97
2018-12-29T02:51:19.983Z,17.17
2018-12-29T02:53:48.423Z,16.87
2018-12-29T02:56:16.875Z,16.33
2018-12-29T02:58:45.328Z,17.23
2018-12-29T03:01:13.826Z,16.93
2018-12-29T03:03:42.394Z,16.03
2018-12-29T03:06:10.897Z,16.03
2018-12-29T03:08:39.403Z,14.97
2018-12-29T03:11:07.843Z,12.03
2018-12-29T03:13:36.747Z,16.73
2018-12-29T03:16:05.226Z,15.30
2018-12-29T03:18:33.660Z,16.37
2018-12-29T03:21:02.100Z,14.80
2018-12-29T03:23:30.662Z,16.70
2018-12-29T03:25:59.092Z,16.50
2018-12-29T03:28:27.549Z,15.97
2018-12-29T03:30:55.985Z,15.60
2018-12-29T03:33:24.410Z,15.10
2018-12-29T03:35:52.859Z,16.23
2018-12-29T03:38:21.292Z,17.23
2018-12-29T03:40:49.757Z,17.50
2018-12-29T03:43:18.272Z,17.60
2018-12-29T03:45:49.349Z,15.83
2018-12-29T03:48:16.869Z,18.00
2018-12-29T03:50:45.300Z,17.70
2018-12-29T03:53:13.770Z,16.00
2018-12-29T03:55:42.204Z,13.20
2018-12-29T03:58:10.638Z,15.13
2018-12-29T04:00:39.081Z,16.57
2018-12-29T04:03:07.517Z,15.90
2018-12-29T04:05:35.966Z,16.90
2018-12-29T04:08:04.400Z,14.73
2018-12-29T04:10:32.833Z,18.73
2018-12-29T04:13:01.271Z,17.27
2018-12-29T04:15:29.769Z,16.23
2018-12-29T04:17:58.215Z,17.03
2018-12-29T04:20:26.679Z,16.67
2018-12-29T04:22:55.110Z,15.67
2018-12-29T04:25:24.134Z,17.43
2018-12-29T04:27:52.566Z,17.10
2018-12-29T04:30:21.016Z,16.07
2018-12-29T04:32:49.472Z,17.73
2018-12-29T04:35:17.912Z,17.60
2018-12-29T04:37:46.371Z,17.40
2018-12-29T04:40:14.865Z,16.67
2018-12-29T04:42:43.344Z,16.13
2018-12-29T04:45:11.774Z,16.97
2018-12-29T04:47:40.196Z,16.70
2018-12-29T04:50:08.724Z,17.03
2018-12-29T04:52:37.156Z,18.47
2018-12-29T04:55:05.773Z,15.87
2018-12-29T04:57:34.218Z,17.90
2018-12-29T05:00:02.653Z,16.57
2018-12-29T05:02:31.104Z,18.73
2018-12-29T05:04:59.600Z,19.00
2018-12-29T05:07:28.079Z,14.50
2018-12-29T05:09:56.552Z,19.27
2018-12-29T05:12:24.992Z,19.80
2018-12-29T05:14:53.446Z,18.40
2018-12-29T05:17:21.877Z,15.30
2018-12-29T05:19:50.332Z,18.53
2018-12-29T05:22:18.777Z,19.50
2018-12-29T05:24:47.200Z,21.03
2018-12-29T05:27:15.644Z,20.57
2018-12-29T05:29:44.075Z,20.37
2018-12-29T05:32:12.528Z,18.43
2018-12-29T05:34:40.952Z,19.77
2018-12-29T05:37:09.385Z,17.77
2018-12-29T05:39:37.833Z,20.67
2018-12-29T05:42:06.276Z,16.93
2018-12-29T05:44:34.748Z,18.83
2018-12-29T05:47:03.187Z,19.53
2018-12-29T05:49:31.704Z,18.33
2018-12-29T05:52:00.215Z,16.50
2018-12-29T05:54:28.708Z,18.50
2018-12-29T05:56:57.161Z,15.70
2018-12-29T05:59:25.587Z,17.40
2018-12-29T06:01:54.016Z,20.67
2018-12-29T06:04:22.461Z,17.60
2018-12-29T06:06:50.888Z,17.70
2018-12-29T06:09:19.352Z,17.87
2018-12-29T06:11:47.776Z,20.33
2018-12-29T06:14:16.212Z,19.90
2018-12-29T06:16:44.657Z,20.47
2018-12-29T06:19:13.088Z,19.13
2018-12-29T06:21:41.539Z,19.23
2018-12-29T06:24:09.964Z,18.50
2018-12-29T06:26:39.934Z,17.97
2018-12-29T06:29:08.373Z,19.10
2018-12-29T06:31:36.807Z,18.33
2018-12-29T06:34:05.259Z,15.47
2018-12-29T06:36:33.756Z,16.53
2018-12-29T06:39:02.175Z,18.77
2018-12-29T06:41:30.627Z,18.40
2018-12-29T06:43:59.058Z,18.60
2018-12-29T06:46:34.609Z,18.77
2018-12-29T06:48:57.672Z,17.17
2018-12-29T06:51:26.099Z,20.60
2018-12-29T06:53:54.544Z,17.40
2018-12-29T06:56:22.986Z,18.37
2018-12-29T06:58:51.444Z,20.43
2018-12-29T07:01:19.877Z,21.27
2018-12-29T07:03:48.326Z,19.33
2018-12-29T07:06:16.832Z,19.10
2018-12-29T07:08:45.268Z,19.70
2018-12-29T07:11:13.721Z,19.83
2018-12-29T07:13:42.151Z,18.33
2018-12-29T07:16:10.585Z,20.20
2018-12-29T07:18:39.030Z,18.80
2018-12-29T07:21:07.461Z,20.60
2018-12-29T07:23:35.924Z,17.53
2018-12-29T07:26:04.361Z,19.63
2018-12-29T07:28:32.798Z,18.07
2018-12-29T07:31:01.320Z,20.30
2018-12-29T07:33:29.920Z,19.57
2018-12-29T07:35:58.373Z,22.27
2018-12-29T07:38:26.798Z,17.50
2018-12-29T07:40:55.227Z,22.10
2018-12-29T07:43:23.679Z,20.60
2018-12-29T07:45:52.142Z,19.57
2018-12-29T07:48:20.601Z,20.20
2018-12-29T07:50:49.121Z,19.53
2018-12-29T07:53:18.660Z,20.87
2018-12-29T07:55:47.122Z,20.60
2018-12-29T07:58:15.547Z,19.87
2018-12-29T08:00:44.000Z,18.87
2018-12-29T08:03:12.541Z,20.87
2018-12-29T08:05:41.080Z,20.13
2018-12-29T08:08:09.527Z,20.20
2018-12-29T08:10:38.845Z,18.97
2018-12-29T08:13:07.388Z,20.33
2018-12-29T08:15:35.973Z,22.20
2018-12-29T08:18:04.663Z,19.40
2018-12-29T08:20:33.124Z,18.27
2018-12-29T08:23:01.604Z,19.13
2018-12-29T08:25:30.165Z,19.90
2018-12-29T08:27:58.595Z,20.07
2018-12-29T08:30:27.016Z,18.87
2018-12-29T08:32:55.505Z,18.37
2018-12-29T08:35:23.996Z,18.33
2018-12-29T08:37:52.470Z,19.53
2018-12-29T08:40:21.656Z,20.10
2018-12-29T08:42:50.089Z,19.07
2018-12-29T08:45:18.540Z,17.57
2018-12-29T08:47:46.987Z,16.60
2018-12-29T08:50:15.436Z,15.60
2018-12-29T08:52:43.895Z,19.73
2018-12-29T08:55:12.347Z,18.17
2018-12-29T08:57:40.820Z,18.53
2018-12-29T09:00:09.374Z,20.03
2018-12-29T09:02:37.824Z,18.27
2018-12-29T09:05:06.250Z,19.70
2018-12-29T09:07:34.675Z,19.90
2018-12-29T09:10:03.120Z,19.67
2018-12-29T09:12:31.564Z,18.47
2018-12-29T09:15:00.090Z,19.03
2018-12-29T09:17:28.592Z,17.40
2018-12-29T09:19:57.037Z,17.63
2018-12-29T09:22:25.564Z,18.37
2018-12-29T09:24:53.988Z,20.40
2018-12-29T09:27:22.442Z,19.07
2018-12-29T09:29:50.864Z,18.67
2018-12-29T09:32:19.374Z,17.07
2018-12-29T09:34:47.892Z,18.03
2018-12-29T09:37:16.424Z,17.90
2018-12-29T09:39:44.907Z,18.57
2018-12-29T09:42:14.951Z,18.73
2018-12-29T09:44:43.465Z,19.23
2018-12-29T09:47:19.242Z,19.33
2018-12-29T09:49:42.118Z,18.63
2018-12-29T09:52:10.645Z,17.93
2018-12-29T09:54:39.157Z,17.50
2018-12-29T09:57:07.585Z,19.23
2018-12-29T09:59:36.072Z,19.10
2018-12-29T10:02:04.547Z,17.87
2018-12-29T10:04:33.000Z,20.13
2018-12-29T10:07:01.426Z,20.27
2018-12-29T10:09:29.852Z,19.80
2018-12-29T10:11:58.292Z,19.67
2018-12-29T10:14:26.725Z,18.30
2018-12-29T10:16:55.192Z,18.50
2018-12-29T10:19:23.624Z,19.53
2018-12-29T10:21:52.127Z,18.23
2018-12-29T10:24:20.577Z,18.73
2018-12-29T10:26:49.500Z,18.70
2018-12-29T10:29:17.961Z,17.13
2018-12-29T10:31:46.396Z,19.10
2018-12-29T10:34:14.821Z,19.23
2018-12-29T10:36:43.292Z,16.77
2018-12-29T10:39:11.739Z,16.37
2018-12-29T10:41:40.180Z,18.57
2018-12-29T10:44:08.616Z,16.93
2018-12-29T10:46:37.552Z,16.77
2018-12-29T10:49:05.999Z,17.30
2018-12-29T10:51:34.424Z,18.73
2018-12-29T10:54:02.892Z,20.07
2018-12-29T10:56:31.320Z,17.00
2018-12-29T10:58:59.752Z,16.53
2018-12-29T11:01:28.197Z,16.43
2018-12-29T11:03:56.624Z,17.27
2018-12-29T11:06:25.082Z,18.00
2018-12-29T11:08:53.530Z,16.77
2018-12-29T11:11:22.017Z,16.93
2018-12-29T11:13:50.458Z,18.03
2018-12-29T11:16:18.960Z,16.07
2018-12-29T11:18:48.379Z,17.60
2018-12-29T11:21:17.031Z,18.43
2018-12-29T11:23:45.464Z,18.37
2018-12-29T11:26:13.899Z,18.40
2018-12-29T11:28:42.340Z,17.07
2018-12-29T11:31:10.793Z,17.90
2018-12-29T11:33:39.222Z,18.67
2018-12-29T11:36:07.657Z,17.33
2018-12-29T11:38:36.112Z,19.43
2018-12-29T11:41:04.594Z,19.67
2018-12-29T11:43:33.077Z,18.27
2018-12-29T11:46:01.566Z,17.33
2018-12-29T11:48:30.008Z,19.53
2018-12-29T11:50:58.661Z,18.30
2018-12-29T11:53:27.660Z,18.00
2018-12-29T11:55:56.195Z,19.33
2018-12-29T11:58:24.742Z,17.13
2018-12-29T12:00:53.315Z,19.63
2018-12-29T12:03:21.898Z,19.63
2018-12-29T12:05:50.703Z,18.43
2018-12-29T12:08:19.156Z,16.50
2018-12-29T12:10:47.724Z,18.37
2018-12-29T12:13:16.241Z,17.73
2018-12-29T12:15:44.683Z,17.03
2018-12-29T12:18:13.421Z,17.73
2018-12-29T12:20:41.952Z,17.77
2018-12-29T12:23:10.398Z,16.77
2018-12-29T12:25:38.898Z,17.03
2018-12-29T12:28:07.785Z,18.53
2018-12-29T12:30:36.252Z,18.57
2018-12-29T12:33:04.732Z,17.57
2018-12-29T12:35:33.355Z,17.67
2018-12-29T12:38:02.154Z,16.73
2018-12-29T12:40:30.681Z,18.13
2018-12-29T12:42:59.255Z,16.67
2018-12-29T12:45:27.785Z,18.00
2018-12-29T12:47:56.354Z,18.20
2018-12-29T12:50:24.967Z,16.70
2018-12-29T12:52:53.501Z,17.87
2018-12-29T12:55:21.948Z,17.80
2018-12-29T12:57:50.577Z,17.87
2018-12-29T13:00:19.285Z,18.83
2018-12-29T13:02:47.713Z,19.47
2018-12-29T13:05:16.304Z,19.10
2018-12-29T13:07:44.758Z,19.33
2018-12-29T13:10:13.288Z,17.33
2018-12-29T13:12:41.804Z,17.57
2018-12-29T13:15:10.269Z,19.93
2018-12-29T13:17:38.763Z,18.33
2018-12-29T13:20:07.264Z,18.57
2018-12-29T13:22:35.784Z,18.30
2018-12-29T13:25:04.429Z,17.40
2018-12-29T13:27:32.934Z,18.47
2018-12-29T13:30:01.382Z,17.97
2018-12-29T13:32:29.888Z,18.80
2018-12-29T13:34:58.400Z,17.50
2018-12-29T13:37:26.847Z,17.97
2018-12-29T13:39:55.280Z,18.57
2018-12-29T13:42:23.712Z,16.67
2018-12-29T13:44:52.154Z,17.03
2018-12-29T13:47:20.660Z,17.73
2018-12-29T13:49:49.095Z,16.37
2018-12-29T13:52:17.623Z,16.93
2018-12-29T13:54:46.199Z,16.87
2018-12-29T13:57:14.752Z,17.17
2018-12-29T13:59:43.227Z,18.07
2018-12-29T14:02:11.768Z,18.53
2018-12-29T14:04:40.283Z,17.97
2018-12-29T14:07:08.839Z,19.13
2018-12-29T14:09:37.322Z,19.23
2018-12-29T14:12:05.844Z,17.27
2018-12-29T14:14:34.339Z,16.50
2018-12-29T14:17:02.839Z,20.23
2018-12-29T14:19:31.368Z,18.87
2018-12-29T14:21:59.882Z,18.33
2018-12-29T14:24:29.114Z,19.47
2018-12-29T14:26:57.724Z,17.63
2018-12-29T14:29:26.238Z,18.47
2018-12-29T14:31:54.760Z,19.07
2018-12-29T14:34:23.197Z,18.60
2018-12-29T14:36:52.131Z,19.77
2018-12-29T14:39:20.633Z,18.23
2018-12-29T14:41:50.548Z,18.33
2018-12-29T14:44:19.293Z,18.23
2018-12-29T14:46:47.843Z,19.50
2018-12-29T14:49:16.757Z,20.43
2018-12-29T14:51:45.271Z,20.23
2018-12-29T14:54:13.782Z,19.00
2018-12-29T14:56:42.400Z,19.43
2018-12-29T14:59:10.899Z,19.10
2018-12-29T15:01:39.655Z,16.30
2018-12-29T15:04:08.133Z,18.37
2018-12-29T15:06:36.639Z,19.97
2018-12-29T15:09:06.429Z,19.70
2018-12-29T15:11:35.009Z,20.57
2018-12-29T15:14:03.544Z,18.53
2018-12-29T15:16:32.360Z,18.43
2018-12-29T15:19:00.869Z,18.10
2018-12-29T15:21:29.700Z,18.77
2018-12-29T15:23:58.200Z,18.17
2018-12-29T15:26:26.728Z,19.37
2018-12-29T15:28:55.263Z,18.03
2018-12-29T15:31:23.769Z,18.50
2018-12-29T15:33:52.279Z,18.90
2018-12-29T15:36:20.793Z,18.90
2018-12-29T15:38:49.338Z,18.60
2018-12-29T15:41:17.836Z,19.80
2018-12-29T15:43:46.661Z,18.20
2018-12-29T15:46:15.112Z,18.17
2018-12-29T15:48:50.956Z,18.30
2018-12-29T15:51:13.808Z,18.50
2018-12-29T15:53:42.241Z,19.63
2018-12-29T15:56:10.747Z,20.67
2018-12-29T15:58:39.264Z,17.70
2018-12-29T16:01:08.171Z,18.40
2018-12-29T16:03:36.699Z,17.40
2018-12-29T16:06:05.204Z,16.40
2018-12-29T16:08:33.713Z,20.40
2018-12-29T16:11:02.243Z,18.73
2018-12-29T16:13:30.740Z,19.20
2018-12-29T16:15:59.229Z,18.60
2018-12-29T16:18:28.047Z,20.27
2018-12-29T16:20:56.555Z,16.87
2018-12-29T16:23:26.182Z,18.93
2018-12-29T16:25:54.780Z,18.80
2018-12-29T16:28:23.315Z,18.30
2018-12-29T16:30:51.799Z,17.37
2018-12-29T16:33:20.319Z,17.97
2018-12-29T16:35:48.786Z,16.97
2018-12-29T16:38:17.298Z,17.37
2018-12-29T16:40:45.832Z,18.97
2018-12-29T16:43:14.340Z,19.20
2018-12-29T16:45:42.859Z,19.83
2018-12-29T16:48:11.483Z,20.30
2018-12-29T16:50:39.994Z,20.33
2018-12-29T16:53:08.512Z,18.37
2018-12-29T16:55:37.021Z,20.43
2018-12-29T16:58:05.862Z,21.67
2018-12-29T17:00:34.348Z,20.50
2018-12-29T17:03:02.849Z,21.77
2018-12-29T17:05:31.377Z,24.53
2018-12-29T17:08:00.290Z,22.70
2018-12-29T17:10:28.807Z,23.50
2018-12-29T17:12:57.324Z,22.23
2018-12-29T17:15:25.832Z,20.87
2018-12-29T17:17:54.368Z,20.70
2018-12-29T17:20:22.869Z,23.27
2018-12-29T17:22:51.389Z,23.27
2018-12-29T17:25:19.924Z,22.20
2018-12-29T17:27:48.440Z,21.90
2018-12-29T17:30:16.989Z,21.27
2018-12-29T17:32:45.938Z,23.90
2018-12-29T17:35:14.442Z,25.07
2018-12-29T17:37:42.964Z,24.07
2018-12-29T17:40:11.396Z,27.13
2018-12-29T17:42:39.924Z,25.77
2018-12-29T17:45:08.636Z,27.40
2018-12-29T17:47:37.132Z,26.37
2018-12-29T17:50:06.608Z,27.10
2018-12-29T17:52:35.100Z,26.53
2018-12-29T17:55:04.195Z,27.37
2018-12-29T17:57:32.701Z,28.47
2018-12-29T18:00:01.201Z,28.77
2018-12-29T18:02:29.721Z,26.20
2018-12-29T18:04:58.234Z,24.37
2018-12-29T18:07:26.962Z,26.03
2018-12-29T18:09:57.294Z,26.43
2018-12-29T18:12:25.632Z,25.00
2018-12-29T18:14:54.171Z,28.23
2018-12-29T18:17:22.677Z,26.10
2018-12-29T18:19:51.214Z,25.40
2018-12-29T18:22:19.740Z,28.70
2018-12-29T18:24:48.658Z,27.23
2018-12-29T18:27:18.194Z,26.23
2018-12-29T18:29:46.926Z,26.63
2018-12-29T18:32:15.432Z,26.13
2018-12-29T18:34:43.943Z,28.77
2018-12-29T18:37:12.740Z,27.27
2018-12-29T18:39:41.270Z,26.80
2018-12-29T18:42:09.776Z,27.73
2018-12-29T18:44:38.321Z,24.40
2018-12-29T18:47:06.778Z,24.20
2018-12-29T18:49:38.701Z,25.93
2018-12-29T18:52:05.652Z,26.10
2018-12-29T18:54:34.164Z,27.73
2018-12-29T18:57:02.697Z,26.13
2018-12-29T18:59:31.210Z,26.93
2018-12-29T19:01:59.733Z,25.70
2018-12-29T19:04:28.242Z,26.03
2018-12-29T19:06:56.747Z,25.13
2018-12-29T19:09:25.265Z,26.03
2018-12-29T19:11:53.784Z,26.27
2018-12-29T19:14:22.693Z,26.70
2018-12-29T19:16:51.632Z,27.13
2018-12-29T19:19:20.554Z,26.23
2018-12-29T19:21:49.091Z,27.73
2018-12-29T19:24:17.631Z,28.47
2018-12-29T19:26:46.133Z,25.93
2018-12-29T19:29:14.657Z,26.67
2018-12-29T19:31:44.663Z,27.03
2018-12-29T19:34:13.351Z,27.57
2018-12-29T19:36:41.781Z,26.47
2018-12-29T19:39:10.694Z,26.30
2018-12-29T19:41:46.366Z,26.53
2018-12-29T19:44:09.368Z,28.63
2018-12-29T19:46:38.093Z,29.30
2018-12-29T19:49:06.519Z,26.67
2018-12-29T19:51:35.028Z,24.67
2018-12-29T19:54:03.477Z,25.03
2018-12-29T19:56:31.904Z,25.23
2018-12-29T19:59:00.834Z,26.23
2018-12-29T20:01:29.342Z,20.63
2018-12-29T20:03:58.235Z,25.93
2018-12-29T20:06:26.722Z,21.70
2018-12-29T20:08:55.291Z,25.43
2018-12-29T20:11:23.767Z,24.07
2018-12-29T20:13:52.270Z,25.13
2018-12-29T20:16:20.771Z,25.27
2018-12-29T20:18:49.247Z,23.00
2018-12-29T20:21:17.677Z,24.77
2018-12-29T20:23:46.167Z,21.93
2018-12-29T20:26:14.630Z,20.80
2018-12-29T20:28:43.141Z,25.30
2018-12-29T20:31:11.961Z,26.43
2018-12-29T20:33:40.462Z,26.30
2018-12-29T20:36:08.985Z,23.37
2018-12-29T20:38:37.426Z,23.20
2018-12-29T20:41:05.949Z,22.27
2018-12-29T20:43:34.772Z,22.10
2018-12-29T20:46:03.282Z,22.93
2018-12-29T20:48:31.803Z,21.93
2018-12-29T20:51:00.376Z,23.27
2018-12-29T20:53:28.886Z,20.80
2018-12-29T20:55:57.448Z,24.80
2018-12-29T20:58:25.914Z,22.47
2018-12-29T21:00:54.451Z,20.57
2018-12-29T21:03:22.907Z,21.47
2018-12-29T21:05:51.499Z,21.63
2018-12-29T21:08:20.022Z,20.93
2018-12-29T21:10:48.641Z,22.77
2018-12-29T21:13:17.096Z,22.20
2018-12-29T21:15:45.523Z,21.57
2018-12-29T21:18:14.029Z,19.93
2018-12-29T21:20:42.549Z,19.53
2018-12-29T21:23:11.053Z,20.27
2018-12-29T21:25:39.783Z,20.37
2018-12-29T21:28:08.294Z,20.53
2018-12-29T21:30:36.801Z,21.17
2018-12-29T21:33:05.319Z,22.73
2018-12-29T21:35:33.840Z,21.60
2018-12-29T21:38:02.369Z,18.70
2018-12-29T21:40:30.877Z,19.43
2018-12-29T21:42:59.316Z,22.03
2018-12-29T21:45:27.844Z,20.43
2018-12-29T21:47:56.285Z,19.43
2018-12-29T21:50:25.919Z,21.13
2018-12-29T21:52:54.965Z,20.53
2018-12-29T21:55:23.492Z,19.03
2018-12-29T21:57:52.012Z,21.13
2018-12-29T22:00:20.515Z,19.03
2018-12-29T22:02:49.056Z,18.30
2018-12-29T22:05:17.560Z,17.43
2018-12-29T22:07:46.071Z,19.17
2018-12-29T22:10:14.596Z,17.73
2018-12-29T22:12:43.107Z,16.37
2018-12-29T22:15:11.640Z,18.83
2018-12-29T22:17:40.143Z,15.30
2018-12-29T22:20:09.094Z,17.30
2018-12-29T22:22:37.711Z,16.17
2018-12-29T22:25:06.397Z,16.07
2018-12-29T22:27:34.947Z,16.17
2018-12-29T22:30:03.726Z,17.50
2018-12-29T22:32:32.318Z,15.00
2018-12-29T22:35:00.862Z,15.53
2018-12-29T22:37:29.349Z,16.00
2018-12-29T22:39:57.878Z,16.03
2018-12-29T22:42:26.384Z,16.63
2018-12-29T22:44:54.815Z,17.77
2018-12-29T22:47:23.744Z,16.27
2018-12-29T22:49:52.248Z,16.40
2018-12-29T22:52:20.720Z,14.63
2018-12-29T22:54:49.425Z,17.00
2018-12-29T22:57:17.920Z,18.30
2018-12-29T22:59:46.444Z,16.53
2018-12-29T23:02:14.952Z,18.63
2018-12-29T23:04:43.469Z,18.70
2018-12-29T23:07:12.283Z,18.57
2018-12-29T23:09:40.972Z,17.40
2018-12-29T23:12:09.497Z,16.17
2018-12-29T23:14:38.016Z,16.83
2018-12-29T23:17:06.852Z,15.67
2018-12-29T23:19:35.354Z,17.27
2018-12-29T23:22:04.337Z,17.37
2018-12-29T23:24:32.860Z,17.60
2018-12-29T23:27:01.384Z,17.17
2018-12-29T23:29:29.987Z,17.60
2018-12-29T23:31:58.533Z,17.77
2018-12-29T23:34:27.435Z,18.80
2018-12-29T23:36:55.974Z,18.80
2018-12-29T23:39:24.548Z,16.70
2018-12-29T23:41:53.477Z,17.90
2018-12-29T23:44:21.980Z,18.77
2018-12-29T23:46:50.485Z,18.97
2018-12-29T23:49:19.140Z,18.90
2018-12-29T23:51:47.626Z,18.20
2018-12-29T23:54:16.168Z,18.07
2018-12-29T23:56:44.981Z,17.17
2018-12-29T23:59:13.562Z,18.83
